Time;durP1;ratioP1;P1;durP2;ratioP2;P2;SDS_P1;SDS_P2;PMS_P1;PMS_P2;Temp;Humidity;BMP_temperature;BMP_pressure;BME280_temperature;BME280_humidity;BME280_pressure;Samples;Min_cycle;Max_cycle;Signal;HPM_P1;HPM_P2
2021/05/18 00:00:36;;;;;;;6.10;3.80;;;9.70;87.80;;;;;;2074439;28;20492;-87
2021/05/18 00:01:37;;;;;;;6.60;3.90;;;9.60;87.70;;;;;;2079574;28;20029;-86
2021/05/18 00:02:38;;;;;;;6.90;3.90;;;9.60;87.80;;;;;;2075701;28;20478;-86
2021/05/18 00:03:38;;;;;;;7.25;3.80;;;9.60;87.80;;;;;;2080876;28;20120;-86
2021/05/18 00:04:39;;;;;;;6.95;3.83;;;9.60;87.90;;;;;;2072484;28;20045;-87
2021/05/18 00:05:42;;;;;;;7.30;3.85;;;9.50;87.90;;;;;;2068669;28;20054;-86
2021/05/18 00:06:43;;;;;;;6.95;3.75;;;9.60;88.00;;;;;;2069454;28;20041;-86
2021/05/18 00:08:06;;;;;;;7.78;4.28;;;9.50;88.00;;;;;;2074489;28;20033;-86
2021/05/18 00:11:58;;;;;;;7.95;3.83;;;9.50;88.00;;;;;;2063570;28;20042;-86
2021/05/18 00:12:58;;;;;;;7.03;3.97;;;9.50;87.90;;;;;;2063522;28;20480;-86
2021/05/18 00:13:59;;;;;;;7.10;3.90;;;9.50;87.90;;;;;;2082340;28;20135;-86
2021/05/18 00:15:02;;;;;;;9.02;4.15;;;9.50;87.90;;;;;;2086958;28;20029;-87
2021/05/18 00:16:04;;;;;;;6.82;4.15;;;9.50;87.90;;;;;;2072201;28;20034;-87
2021/05/18 00:17:05;;;;;;;6.63;4.13;;;9.50;88.00;;;;;;2064314;28;20150;-86
2021/05/18 00:18:06;;;;;;;7.28;4.00;;;9.50;88.00;;;;;;2068334;28;20023;-87
2021/05/18 00:19:07;;;;;;;8.52;4.20;;;9.50;88.00;;;;;;2077963;28;20032;-87
2021/05/18 00:20:11;;;;;;;7.80;4.43;;;9.50;88.10;;;;;;2080021;28;20083;-86
2021/05/18 00:21:12;;;;;;;7.20;4.28;;;9.50;88.10;;;;;;2072467;28;20025;-86
2021/05/18 00:22:13;;;;;;;7.95;4.63;;;9.50;88.10;;;;;;2070114;28;20092;-87
2021/05/18 00:23:14;;;;;;;8.07;4.53;;;9.50;88.10;;;;;;2071583;28;20488;-87
2021/05/18 00:24:14;;;;;;;6.80;4.22;;;9.50;88.10;;;;;;2064551;28;20049;-87
2021/05/18 00:25:17;;;;;;;7.13;4.68;;;9.50;88.20;;;;;;2064878;28;20475;-87
2021/05/18 00:26:17;;;;;;;7.90;4.70;;;9.50;88.20;;;;;;2071145;28;20037;-86
2021/05/18 00:27:19;;;;;;;7.55;4.30;;;9.50;88.30;;;;;;2070987;28;20030;-86
2021/05/18 00:28:20;;;;;;;8.02;4.78;;;9.40;88.30;;;;;;2067783;28;20471;-87
2021/05/18 00:29:21;;;;;;;6.03;4.18;;;9.40;88.30;;;;;;2067391;28;20030;-87
2021/05/18 00:30:22;;;;;;;8.70;4.80;;;9.40;88.30;;;;;;2051222;28;20031;-87
2021/05/18 00:31:23;;;;;;;7.40;4.55;;;9.40;88.40;;;;;;2068785;28;20136;-87
2021/05/18 00:32:24;;;;;;;6.10;4.13;;;9.40;88.40;;;;;;2077787;28;20535;-86
2021/05/18 00:33:25;;;;;;;10.48;5.30;;;9.40;88.50;;;;;;2071945;28;20022;-87
2021/05/18 00:34:26;;;;;;;7.07;4.45;;;9.40;88.50;;;;;;2071626;28;20073;-87
2021/05/18 00:35:27;;;;;;;7.95;4.88;;;9.40;88.60;;;;;;2072249;28;20524;-86
2021/05/18 00:36:27;;;;;;;6.75;4.50;;;9.40;88.60;;;;;;2071540;28;20393;-87
2021/05/18 00:37:28;;;;;;;7.97;4.72;;;9.40;88.60;;;;;;2060355;28;20039;-86
2021/05/18 00:38:28;;;;;;;7.25;4.50;;;9.40;88.60;;;;;;2059587;28;20576;-86
2021/05/18 00:39:29;;;;;;;8.00;4.50;;;9.40;88.60;;;;;;2063473;28;20474;-86
2021/05/18 00:40:30;;;;;;;8.77;4.65;;;9.40;88.60;;;;;;2047773;29;20497;-86
2021/05/18 00:41:30;;;;;;;7.68;4.80;;;9.40;88.60;;;;;;2063026;28;20215;-87
2021/05/18 00:42:31;;;;;;;8.63;5.18;;;9.40;88.60;;;;;;2070634;28;20131;-87
2021/05/18 00:43:33;;;;;;;6.40;4.50;;;9.40;88.60;;;;;;2071935;28;20022;-87
2021/05/18 00:44:33;;;;;;;7.05;4.47;;;9.40;88.60;;;;;;2064397;28;20523;-87
2021/05/18 00:45:41;;;;;;;7.88;4.70;;;9.40;88.60;;;;;;2071772;28;20030;-87
2021/05/18 00:46:42;;;;;;;8.20;4.95;;;9.40;88.70;;;;;;2070532;28;20120;-86
2021/05/18 00:47:43;;;;;;;7.18;4.47;;;9.40;88.70;;;;;;2072352;28;20034;-87
2021/05/18 00:48:56;;;;;;;7.32;5.10;;;9.40;88.70;;;;;;2071756;28;20176;-87
2021/05/18 00:49:56;;;;;;;6.68;4.53;;;9.40;88.70;;;;;;2073254;28;20030;-86
2021/05/18 00:51:09;;;;;;;6.65;4.78;;;9.40;89.40;;;;;;2069273;28;20081;-86
2021/05/18 00:52:10;;;;;;;8.20;4.90;;;9.40;88.80;;;;;;2078552;28;20116;-86
2021/05/18 00:53:12;;;;;;;7.45;4.75;;;9.40;88.80;;;;;;2063535;28;20436;-86
2021/05/18 00:54:37;;;;;;;8.70;4.70;;;9.50;88.80;;;;;;2063225;28;20053;-86
2021/05/18 00:55:41;;;;;;;6.93;4.63;;;9.50;88.80;;;;;;2077701;28;20037;-86
2021/05/18 00:59:03;;;;;;;7.45;4.55;;;9.50;88.70;;;;;;2076777;28;20086;-86
2021/05/18 01:00:04;;;;;;;7.55;4.85;;;9.50;88.70;;;;;;2080271;28;20018;-86
2021/05/18 01:01:18;;;;;;;6.53;4.47;;;9.50;88.70;;;;;;2064480;28;20121;-86
2021/05/18 01:02:18;;;;;;;7.07;4.25;;;9.50;88.70;;;;;;2071848;28;20514;-87
2021/05/18 01:03:20;;;;;;;8.95;4.68;;;9.50;88.80;;;;;;2080195;28;20022;-86
2021/05/18 01:04:23;;;;;;;8.15;4.80;;;9.50;88.80;;;;;;2080042;28;20550;-86
2021/05/18 01:06:19;;;;;;;7.35;4.78;;;9.50;88.80;;;;;;2079592;28;20036;-87
2021/05/18 01:06:44;;;;;;;8.18;4.78;;;9.50;88.90;;;;;;2081604;28;20026;-87
2021/05/18 01:07:47;;;;;;;8.32;5.00;;;9.50;88.90;;;;;;2071070;28;20026;-86
2021/05/18 01:08:50;;;;;;;7.55;4.93;;;9.50;88.90;;;;;;2072090;28;20022;-86
2021/05/18 01:09:51;;;;;;;7.93;4.80;;;9.50;89.00;;;;;;2070823;28;20518;-86
2021/05/18 01:10:51;;;;;;;8.43;4.90;;;9.50;89.00;;;;;;2073904;28;20037;-87
2021/05/18 01:11:52;;;;;;;7.60;4.97;;;9.50;88.90;;;;;;2065120;28;20022;-87
2021/05/18 01:12:53;;;;;;;8.02;4.75;;;9.50;88.90;;;;;;2057478;28;20137;-86
2021/05/18 01:13:56;;;;;;;7.90;4.72;;;9.50;88.90;;;;;;2057124;28;20039;-85
2021/05/18 01:14:57;;;;;;;9.07;5.20;;;9.60;89.00;;;;;;2057973;28;20061;-86
2021/05/18 01:15:58;;;;;;;8.95;5.47;;;9.60;88.90;;;;;;2063200;28;20923;-86
2021/05/18 01:16:59;;;;;;;10.55;5.40;;;9.60;89.00;;;;;;2057153;28;20485;-86
2021/05/18 01:17:59;;;;;;;10.35;5.88;;;9.50;88.90;;;;;;2069783;28;20052;-86
2021/05/18 01:19:00;;;;;;;8.85;5.38;;;9.50;89.60;;;;;;2060080;28;20035;-86
2021/05/18 01:20:12;;;;;;;8.32;4.97;;;9.50;89.00;;;;;;2073387;28;20042;-86
2021/05/18 01:21:13;;;;;;;8.90;5.68;;;9.60;89.10;;;;;;2064706;28;20068;-84
2021/05/18 01:22:14;;;;;;;8.05;5.60;;;9.50;89.10;;;;;;2065311;28;20081;-86
2021/05/18 01:23:16;;;;;;;9.90;5.88;;;9.50;89.10;;;;;;2072507;28;20225;-86
2021/05/18 01:24:18;;;;;;;9.30;5.97;;;9.60;89.20;;;;;;2071261;28;20056;-86
2021/05/18 01:25:20;;;;;;;8.25;5.53;;;9.50;89.10;;;;;;2080711;28;20407;-86
2021/05/18 01:26:22;;;;;;;8.18;5.40;;;9.60;89.20;;;;;;2076272;28;20030;-86
2021/05/18 01:27:22;;;;;;;9.93;5.63;;;9.50;89.20;;;;;;2079149;28;20132;-85
2021/05/18 01:28:25;;;;;;;9.75;5.57;;;9.50;89.20;;;;;;2065271;28;20050;-86
2021/05/18 01:29:26;;;;;;;8.48;5.65;;;9.60;89.30;;;;;;2068600;28;20026;-86
2021/05/18 01:30:27;;;;;;;9.43;5.53;;;9.60;89.30;;;;;;2073541;28;20029;-86
2021/05/18 01:31:27;;;;;;;9.00;5.35;;;9.60;89.20;;;;;;2065177;28;20424;-86
2021/05/18 01:32:28;;;;;;;8.55;5.53;;;9.60;89.20;;;;;;2073337;28;20116;-86
2021/05/18 01:33:29;;;;;;;9.10;5.90;;;9.60;89.20;;;;;;2073243;28;20080;-86
2021/05/18 01:34:30;;;;;;;9.73;5.80;;;9.60;89.20;;;;;;2079676;28;20060;-86
2021/05/18 01:35:31;;;;;;;8.43;5.55;;;9.70;89.20;;;;;;2063047;28;20161;-86
2021/05/18 01:36:32;;;;;;;9.65;6.25;;;9.60;89.20;;;;;;2070967;28;20084;-86
2021/05/18 01:37:34;;;;;;;9.00;5.30;;;9.70;89.20;;;;;;2062886;28;20081;-86
2021/05/18 01:38:59;;;;;;;7.60;5.70;;;9.70;89.10;;;;;;2065990;28;20088;-86
2021/05/18 01:43:56;;;;;;;8.35;5.68;;;9.80;88.90;;;;;;2086358;28;20039;-87
2021/05/18 01:44:57;;;;;;;8.00;5.38;;;9.80;88.80;;;;;;2080489;28;20030;-86
2021/05/18 01:45:57;;;;;;;10.00;5.60;;;9.80;88.80;;;;;;2065213;28;20489;-86
2021/05/18 01:46:58;;;;;;;9.57;5.50;;;9.80;88.90;;;;;;2049214;28;20489;-87
2021/05/18 01:48:06;;;;;;;8.68;6.05;;;9.80;88.90;;;;;;2056806;28;20547;-87
2021/05/18 01:49:10;;;;;;;8.45;5.45;;;9.80;88.90;;;;;;2065031;28;20508;-87
2021/05/18 01:50:11;;;;;;;10.23;5.82;;;9.90;89.00;;;;;;2078796;28;20387;-87
2021/05/18 01:51:12;;;;;;;8.75;5.60;;;9.90;88.90;;;;;;2073265;28;20030;-87
2021/05/18 01:52:14;;;;;;;9.88;5.80;;;9.90;88.90;;;;;;2073603;28;20520;-86
2021/05/18 01:53:17;;;;;;;8.50;5.18;;;9.90;88.90;;;;;;2074111;28;20459;-87
2021/05/18 01:54:26;;;;;;;7.90;5.72;;;9.90;88.90;;;;;;2067226;28;20034;-86
2021/05/18 01:55:43;;;;;;;8.82;5.63;;;9.90;88.90;;;;;;2071595;28;20026;-86
2021/05/18 01:56:51;;;;;;;8.93;5.60;;;9.90;88.90;;;;;;2073118;28;20033;-87
2021/05/18 01:57:53;;;;;;;8.65;5.72;;;10.00;88.90;;;;;;2074190;28;20037;-86
2021/05/18 01:58:53;;;;;;;10.02;6.18;;;10.00;88.90;;;;;;2075853;28;20050;-85
2021/05/18 01:59:54;;;;;;;10.00;6.18;;;10.00;89.40;;;;;;2072871;28;20026;-86
2021/05/18 02:00:55;;;;;;;9.18;5.82;;;10.00;88.90;;;;;;2063821;28;20465;-86
2021/05/18 02:02:04;;;;;;;9.15;5.82;;;10.00;88.80;;;;;;2072904;28;20023;-86
2021/05/18 02:03:05;;;;;;;7.95;5.68;;;10.00;88.80;;;;;;2074123;28;20104;-86
2021/05/18 02:04:06;;;;;;;8.35;5.70;;;10.00;89.40;;;;;;2072823;28;20037;-86
2021/05/18 02:05:11;;;;;;;8.52;5.60;;;10.00;88.80;;;;;;2073198;28;20034;-86
2021/05/18 02:06:11;;;;;;;10.75;5.65;;;10.00;88.80;;;;;;2073045;28;20033;-86
2021/05/18 02:07:19;;;;;;;8.73;5.97;;;10.10;88.90;;;;;;2067643;28;20496;-86
2021/05/18 02:08:20;;;;;;;8.63;6.28;;;10.10;88.90;;;;;;2066330;28;20524;-85
2021/05/18 02:09:21;;;;;;;8.57;6.15;;;10.00;88.90;;;;;;2071870;28;20026;-85
2021/05/18 02:10:22;;;;;;;9.27;6.13;;;10.00;88.90;;;;;;2068285;28;20038;-85
2021/05/18 02:11:23;;;;;;;9.38;6.20;;;10.00;88.90;;;;;;2076293;28;20116;-86
2021/05/18 02:12:24;;;;;;;9.70;6.05;;;10.00;88.90;;;;;;2074516;28;20527;-86
2021/05/18 02:13:25;;;;;;;10.95;6.25;;;10.00;88.90;;;;;;2077904;28;20022;-86
2021/05/18 02:14:30;;;;;;;8.95;6.00;;;10.00;88.90;;;;;;2064557;28;20508;-86
2021/05/18 02:15:40;;;;;;;11.50;6.70;;;10.00;89.00;;;;;;2055410;28;20043;-86
2021/05/18 02:16:42;;;;;;;10.57;6.15;;;10.00;89.10;;;;;;2060767;28;20122;-85
2021/05/18 02:17:50;;;;;;;9.50;6.13;;;10.00;89.10;;;;;;2068438;28;20562;-86
2021/05/18 02:19:06;;;;;;;8.95;5.80;;;10.00;89.20;;;;;;2076867;28;20460;-86
2021/05/18 02:21:32;;;;;;;9.60;5.88;;;10.00;89.10;;;;;;2073138;28;20364;-86
2021/05/18 02:25:11;;;;;;;9.60;5.65;;;10.00;89.80;;;;;;2074971;28;20484;-86
2021/05/18 02:26:12;;;;;;;8.88;5.95;;;10.10;89.20;;;;;;2075983;28;20634;-85
2021/05/18 02:27:13;;;;;;;11.00;6.10;;;10.10;89.20;;;;;;2072866;28;20595;-86
2021/05/18 02:28:14;;;;;;;8.82;5.80;;;10.10;89.20;;;;;;2059782;28;20030;-86
2021/05/18 02:29:14;;;;;;;10.00;5.68;;;10.10;89.20;;;;;;2064695;28;20121;-86
2021/05/18 02:30:17;;;;;;;9.85;6.15;;;10.10;89.20;;;;;;2072736;28;20021;-86
2021/05/18 02:31:19;;;;;;;9.55;6.05;;;10.10;89.20;;;;;;2064436;28;20069;-85
2021/05/18 02:32:21;;;;;;;9.45;5.93;;;10.10;89.30;;;;;;2065048;28;20424;-85
2021/05/18 02:33:22;;;;;;;9.63;6.22;;;10.10;89.30;;;;;;2080209;28;20488;-86
2021/05/18 02:34:23;;;;;;;10.57;6.15;;;10.10;89.30;;;;;;2072493;28;20026;-86
2021/05/18 02:35:24;;;;;;;10.15;6.38;;;10.10;89.30;;;;;;2072904;28;20021;-86
2021/05/18 02:36:26;;;;;;;9.70;6.10;;;10.10;89.20;;;;;;2073872;28;20030;-86
2021/05/18 02:37:27;;;;;;;8.15;5.80;;;10.10;89.30;;;;;;2083325;28;21204;-88
2021/05/18 02:38:27;;;;;;;9.43;6.22;;;10.20;89.40;;;;;;2072587;28;20096;-88
2021/05/18 02:39:28;;;;;;;9.75;6.10;;;10.10;89.30;;;;;;2063569;28;20125;-88
2021/05/18 02:40:30;;;;;;;10.30;6.57;;;10.20;89.40;;;;;;2071008;28;20034;-87
2021/05/18 02:41:31;;;;;;;9.95;6.38;;;10.20;89.40;;;;;;2080781;28;20036;-87
2021/05/18 02:42:32;;;;;;;8.10;5.82;;;10.20;89.40;;;;;;2072352;28;20026;-87
2021/05/18 02:43:41;;;;;;;10.50;6.50;;;10.30;89.40;;;;;;2072744;28;20508;-87
2021/05/18 02:44:50;;;;;;;8.57;5.57;;;10.20;89.30;;;;;;2070133;28;20041;-87
2021/05/18 02:46:06;;;;;;;10.07;5.70;;;10.30;89.30;;;;;;2070337;28;20153;-87
2021/05/18 02:49:46;;;;;;;10.13;6.63;;;10.30;89.20;;;;;;2076593;28;20442;-86
2021/05/18 02:50:47;;;;;;;9.93;5.97;;;10.30;89.20;;;;;;2074520;28;20057;-86
2021/05/18 02:51:47;;;;;;;10.23;6.35;;;10.30;89.20;;;;;;2070227;28;20471;-87
2021/05/18 02:52:48;;;;;;;8.85;5.90;;;10.30;89.20;;;;;;2072491;28;20077;-87
2021/05/18 02:53:49;;;;;;;9.80;6.07;;;10.40;89.20;;;;;;2073764;28;20480;-86
2021/05/18 02:54:52;;;;;;;9.95;6.10;;;10.40;89.20;;;;;;2069243;28;20091;-86
2021/05/18 02:57:02;;;;;;;11.13;6.43;;;10.40;89.20;;;;;;2068529;28;20030;-86
2021/05/18 02:58:03;;;;;;;8.35;6.00;;;10.40;89.20;;;;;;2071004;28;20053;-86
2021/05/18 03:00:15;;;;;;;11.50;6.50;;;10.40;89.20;;;;;;2089152;28;20125;-85
2021/05/18 03:01:15;;;;;;;9.25;6.00;;;10.40;89.30;;;;;;2082837;28;20364;-86
2021/05/18 03:02:16;;;;;;;9.00;5.85;;;10.40;89.80;;;;;;2072276;28;20113;-86
2021/05/18 03:03:17;;;;;;;10.15;5.68;;;10.50;89.30;;;;;;2072109;28;20048;-87
2021/05/18 03:04:19;;;;;;;8.60;5.93;;;10.40;89.30;;;;;;2069034;28;20064;-86
2021/05/18 03:05:21;;;;;;;11.82;6.82;;;10.40;89.30;;;;;;2088912;28;20052;-86
2021/05/18 03:06:22;;;;;;;8.30;5.90;;;10.40;89.30;;;;;;2078843;28;20511;-86
2021/05/18 03:07:22;;;;;;;8.00;5.93;;;10.50;89.40;;;;;;2063392;28;20028;-86
2021/05/18 03:08:23;;;;;;;8.13;5.57;;;10.50;89.40;;;;;;2056446;28;20177;-86
2021/05/18 03:09:24;;;;;;;8.45;5.85;;;10.50;89.30;;;;;;2056130;28;20022;-87
2021/05/18 03:10:25;;;;;;;9.02;5.78;;;10.50;89.40;;;;;;2079765;28;20025;-86
2021/05/18 03:11:25;;;;;;;8.68;5.97;;;10.50;89.30;;;;;;2064189;28;20053;-86
2021/05/18 03:12:28;;;;;;;10.40;6.32;;;10.50;89.30;;;;;;2064462;28;20026;-86
2021/05/18 03:13:28;;;;;;;10.18;6.60;;;10.60;89.40;;;;;;2072511;28;20033;-86
2021/05/18 03:14:29;;;;;;;9.25;6.22;;;10.50;89.30;;;;;;2072331;28;20482;-86
2021/05/18 03:15:31;;;;;;;8.80;6.38;;;10.60;89.40;;;;;;2065652;28;20034;-87
2021/05/18 03:16:32;;;;;;;11.05;6.47;;;10.50;89.40;;;;;;2072009;28;20029;-86
2021/05/18 03:17:33;;;;;;;9.48;6.50;;;10.50;89.40;;;;;;2074366;28;20080;-87
2021/05/18 03:18:34;;;;;;;10.57;6.10;;;10.50;89.40;;;;;;2080000;28;20171;-86
2021/05/18 03:19:35;;;;;;;9.68;6.43;;;10.60;90.00;;;;;;2080387;28;20021;-86
2021/05/18 03:20:35;;;;;;;9.55;6.30;;;10.50;89.40;;;;;;2068983;28;20026;-86
2021/05/18 03:21:38;;;;;;;12.77;6.78;;;10.60;89.50;;;;;;2062053;28;20023;-86
2021/05/18 03:22:39;;;;;;;8.90;6.15;;;10.50;89.50;;;;;;2080310;28;20041;-86
2021/05/18 03:23:39;;;;;;;10.38;6.38;;;10.60;89.50;;;;;;2077435;28;20052;-86
2021/05/18 03:24:42;;;;;;;10.93;6.40;;;10.60;89.50;;;;;;2060149;28;20120;-86
2021/05/18 03:25:43;;;;;;;8.68;6.32;;;10.60;89.50;;;;;;2067947;28;20536;-86
2021/05/18 03:26:48;;;;;;;8.00;5.93;;;10.60;89.50;;;;;;2072679;28;20033;-86
2021/05/18 03:27:51;;;;;;;9.02;5.82;;;10.60;89.50;;;;;;2064878;28;20412;-86
2021/05/18 03:29:00;;;;;;;8.40;5.90;;;10.60;89.60;;;;;;2065285;28;20152;-86
2021/05/18 03:30:15;;;;;;;10.05;6.32;;;10.60;89.50;;;;;;2066644;28;20542;-87
2021/05/18 03:35:14;;;;;;;8.55;5.65;;;10.60;89.40;;;;;;2072661;28;20458;-87
2021/05/18 03:36:14;;;;;;;7.70;5.72;;;10.70;89.40;;;;;;2066077;28;20081;-86
2021/05/18 03:37:25;;;;;;;9.90;6.50;;;10.70;89.50;;;;;;2056724;28;20062;-86
2021/05/18 03:38:49;;;;;;;11.25;5.75;;;10.60;89.40;;;;;;2069418;28;20065;-86
2021/05/18 03:39:48;;;;;;;;;;;10.70;89.50;;;;;;2073833;28;20512;-87
2021/05/18 03:40:57;;;;;;;8.82;5.45;;;10.70;89.30;;;;;;2070944;28;19931;-86
2021/05/18 03:42:14;;;;;;;8.85;5.68;;;10.70;89.30;;;;;;2068213;28;20040;-87
2021/05/18 03:45:28;;;;;;;8.85;5.78;;;10.70;89.40;;;;;;2074145;28;20480;-86
2021/05/18 03:53:03;;;;;;;8.43;5.50;;;10.60;89.40;;;;;;2077088;28;20044;-86
2021/05/18 03:54:19;;;;;;;7.70;5.47;;;10.70;89.40;;;;;;2087038;28;20029;-86
2021/05/18 04:03:15;;;;;;;9.35;6.05;;;10.70;89.50;;;;;;2074333;28;20135;-86
2021/05/18 04:10:44;;;;;;;8.40;5.82;;;10.70;89.60;;;;;;2073519;28;20069;-86
2021/05/18 04:11:52;;;;;;;8.05;6.00;;;10.70;89.60;;;;;;2077870;28;20432;-87
2021/05/18 04:13:04;;;;;;;9.88;5.72;;;10.70;89.60;;;;;;2075062;28;20033;-86
2021/05/18 04:16:55;;;;;;;8.73;5.78;;;10.70;89.60;;;;;;2076017;28;20296;-87
2021/05/18 04:18:16;;;;;;;8.48;5.80;;;10.70;89.60;;;;;;2074175;28;20022;-87
2021/05/18 04:19:20;;;;;;;7.70;5.85;;;10.70;89.60;;;;;;2064117;28;20133;-87
2021/05/18 04:20:37;;;;;;;9.00;6.20;;;10.70;89.50;;;;;;2062568;28;20026;-87
2021/05/18 04:21:56;;;;;;;9.73;6.30;;;10.70;89.60;;;;;;2078978;28;20037;-87
2021/05/18 04:24:59;;;;;;;8.35;5.80;;;10.80;90.10;;;;;;2027101;28;20135;-87
2021/05/18 04:49:29;;;;;;;9.75;7.07;;;10.80;89.60;;;;;;2047027;28;20043;-86
2021/05/18 04:51:43;;;;;;;10.73;7.25;;;10.70;89.60;;;;;;2083747;28;20032;-86
2021/05/18 04:59:14;;;;;;;9.63;7.07;;;10.90;89.80;;;;;;2055487;28;20484;-86
2021/05/18 05:00:20;;;;;;;11.80;7.80;;;10.90;90.20;;;;;;2064734;28;20068;-85
2021/05/18 05:01:33;;;;;;;10.88;8.13;;;10.90;89.80;;;;;;2071451;28;20041;-85
2021/05/18 05:07:16;;;;;;;11.32;7.95;;;10.90;89.90;;;;;;2072037;28;20034;-85
2021/05/18 05:09:29;;;;;;;11.07;7.78;;;10.90;90.00;;;;;;2068068;28;20038;-85
2021/05/18 05:14:20;;;;;;;9.65;7.80;;;10.90;90.10;;;;;;2081661;28;20091;-85
2021/05/18 05:15:20;;;;;;;9.95;7.50;;;10.90;90.50;;;;;;2074452;28;20186;-85
2021/05/18 05:16:22;;;;;;;11.10;8.23;;;10.80;90.20;;;;;;2066889;28;20142;-86
2021/05/18 05:17:23;;;;;;;10.30;7.80;;;10.80;90.20;;;;;;2071081;28;20085;-84
2021/05/18 05:18:23;;;;;;;10.57;8.05;;;10.80;90.30;;;;;;2068854;28;20029;-85
2021/05/18 05:19:28;;;;;;;11.68;8.38;;;10.80;90.30;;;;;;2078831;28;20052;-86
2021/05/18 05:20:29;;;;;;;10.57;8.32;;;10.80;90.30;;;;;;2089198;28;20033;-85
2021/05/18 05:21:32;;;;;;;11.15;8.77;;;10.80;90.40;;;;;;2073614;28;20045;-85
2021/05/18 05:22:33;;;;;;;11.27;9.00;;;10.80;90.40;;;;;;2065874;28;20489;-85
2021/05/18 05:23:33;;;;;;;11.63;9.07;;;10.80;90.70;;;;;;2070692;28;20034;-85
2021/05/18 05:24:37;;;;;;;12.00;8.95;;;10.80;90.40;;;;;;2060308;28;20038;-85
2021/05/18 05:25:37;;;;;;;11.73;9.13;;;10.80;90.70;;;;;;2060970;28;20030;-85
2021/05/18 05:26:39;;;;;;;10.90;8.48;;;10.80;90.50;;;;;;2069836;28;20180;-85
2021/05/18 05:27:40;;;;;;;13.52;9.73;;;10.80;90.50;;;;;;2067284;28;20022;-85
2021/05/18 05:28:41;;;;;;;11.95;9.23;;;10.80;90.60;;;;;;2074149;28;20030;-88
2021/05/18 05:29:42;;;;;;;11.68;9.00;;;10.80;90.60;;;;;;2073608;28;20030;-86
2021/05/18 05:30:42;;;;;;;11.38;9.02;;;10.80;90.60;;;;;;2073800;28;20030;-87
2021/05/18 05:31:43;;;;;;;13.20;9.10;;;10.80;90.90;;;;;;2075290;28;20021;-87
2021/05/18 05:32:44;;;;;;;10.55;8.55;;;10.80;90.60;;;;;;2079433;28;20090;-86
2021/05/18 05:33:45;;;;;;;10.80;8.55;;;10.80;90.70;;;;;;2078547;28;20060;-86
2021/05/18 05:34:45;;;;;;;11.60;9.45;;;10.80;90.70;;;;;;2081842;28;20026;-87
2021/05/18 05:35:46;;;;;;;11.27;9.15;;;10.80;90.70;;;;;;2079732;28;20044;-87
2021/05/18 05:36:47;;;;;;;13.07;9.52;;;10.90;90.70;;;;;;2069201;28;20038;-85
2021/05/18 05:37:48;;;;;;;10.70;9.10;;;10.80;90.70;;;;;;2069963;28;20302;-87
2021/05/18 05:38:49;;;;;;;12.32;9.88;;;10.90;90.70;;;;;;2078550;28;20406;-86
2021/05/18 05:39:50;;;;;;;12.52;10.52;;;10.90;90.70;;;;;;2076303;28;20034;-86
2021/05/18 05:40:51;;;;;;;12.88;10.48;;;10.90;90.70;;;;;;2074735;28;20061;-86
2021/05/18 05:41:55;;;;;;;13.32;10.30;;;10.90;90.80;;;;;;2064539;28;20046;-85
2021/05/18 05:42:56;;;;;;;12.40;9.40;;;10.90;90.80;;;;;;2073458;28;20112;-86
2021/05/18 05:43:57;;;;;;;13.32;10.68;;;10.90;90.80;;;;;;2080511;28;20507;-86
2021/05/18 05:44:57;;;;;;;12.85;10.38;;;10.90;90.80;;;;;;2073257;28;20037;-85
2021/05/18 05:45:58;;;;;;;14.70;10.85;;;10.90;90.80;;;;;;2070895;28;20032;-86
2021/05/18 05:46:59;;;;;;;12.50;10.10;;;10.90;90.80;;;;;;2062492;28;20037;-85
2021/05/18 05:47:59;;;;;;;13.55;10.73;;;10.90;90.80;;;;;;2063733;28;20416;-87
2021/05/18 05:49:00;;;;;;;15.13;11.63;;;11.00;90.80;;;;;;2048916;28;20027;-85
2021/05/18 05:50:01;;;;;;;14.32;11.75;;;11.00;90.80;;;;;;2056937;28;20536;-84
2021/05/18 05:51:03;;;;;;;13.88;11.05;;;11.10;90.80;;;;;;2071941;28;20084;-84
2021/05/18 05:52:05;;;;;;;15.35;11.65;;;11.00;90.80;;;;;;2070208;28;20076;-83
2021/05/18 05:53:05;;;;;;;15.00;11.73;;;11.00;90.80;;;;;;2067634;28;20030;-84
2021/05/18 05:54:06;;;;;;;14.18;11.68;;;11.00;90.80;;;;;;2070057;28;20026;-83
2021/05/18 05:55:09;;;;;;;13.95;11.35;;;11.10;90.80;;;;;;2079385;28;20495;-85
2021/05/18 05:56:10;;;;;;;14.27;11.98;;;11.10;90.80;;;;;;2065083;28;20070;-84
2021/05/18 05:57:11;;;;;;;14.88;11.90;;;11.10;90.80;;;;;;2069984;28;20128;-85
2021/05/18 05:58:11;;;;;;;16.33;11.93;;;11.10;91.10;;;;;;2075860;28;20558;-85
2021/05/18 05:59:13;;;;;;;15.25;12.30;;;11.20;90.80;;;;;;2071688;28;20064;-85
2021/05/18 06:00:14;;;;;;;14.77;12.45;;;11.20;90.80;;;;;;2065300;28;20054;-86
2021/05/18 06:01:16;;;;;;;15.93;12.77;;;11.20;90.80;;;;;;2068391;28;20550;-84
2021/05/18 06:02:17;;;;;;;15.35;12.65;;;11.20;90.80;;;;;;2057751;28;20078;-85
2021/05/18 06:03:18;;;;;;;16.58;13.10;;;11.20;90.80;;;;;;2059673;28;20132;-84
2021/05/18 06:04:19;;;;;;;17.65;13.07;;;11.30;90.80;;;;;;2063266;28;20026;-85
2021/05/18 06:05:19;;;;;;;17.15;13.25;;;11.30;90.80;;;;;;2078797;28;20041;-84
2021/05/18 06:06:20;;;;;;;19.95;14.25;;;11.30;90.70;;;;;;2069500;28;20424;-84
2021/05/18 06:07:21;;;;;;;17.38;13.15;;;11.30;90.70;;;;;;2071838;28;20044;-84
2021/05/18 06:08:22;;;;;;;17.38;13.38;;;11.40;90.70;;;;;;2076914;28;20566;-84
2021/05/18 06:09:23;;;;;;;14.85;12.73;;;11.30;90.70;;;;;;2073386;28;20026;-84
2021/05/18 06:10:29;;;;;;;16.25;13.10;;;11.40;90.70;;;;;;2081726;28;20421;-84
2021/05/18 06:11:52;;;;;;;15.45;12.45;;;11.40;90.70;;;;;;2081878;28;20062;-84
2021/05/18 06:16:07;;;;;;;15.60;12.15;;;11.40;90.60;;;;;;2053693;28;20027;-84
2021/05/18 06:41:51;;;;;;;17.65;13.57;;;11.70;90.50;;;;;;2082857;28;20040;-84
2021/05/18 06:47:00;;;;;;;15.80;12.57;;;11.80;90.30;;;;;;2075871;28;20037;-85
2021/05/18 06:48:02;;;;;;;15.75;11.95;;;11.90;90.30;;;;;;2076096;28;20052;-85
2021/05/18 06:49:02;;;;;;;16.00;12.63;;;12.00;90.20;;;;;;2072764;28;20060;-84
2021/05/18 06:51:16;;;;;;;16.40;12.82;;;12.10;90.10;;;;;;2081700;28;20017;-84
2021/05/18 06:52:16;;;;;;;17.23;13.95;;;12.20;90.10;;;;;;2074969;28;20050;-84
2021/05/18 06:53:17;;;;;;;17.63;13.75;;;12.20;90.00;;;;;;2057606;28;20394;-85
2021/05/18 06:54:18;;;;;;;16.27;13.10;;;12.20;90.00;;;;;;2062924;28;20027;-85
2021/05/18 06:55:21;;;;;;;16.48;12.77;;;12.30;90.00;;;;;;2088356;28;20029;-84
2021/05/18 06:56:31;;;;;;;15.50;13.20;;;12.30;90.00;;;;;;2072224;28;20399;-85
2021/05/18 06:57:35;;;;;;;16.02;13.23;;;12.30;90.00;;;;;;2073482;28;20049;-83
2021/05/18 07:00:56;;;;;;;15.50;12.68;;;12.40;90.00;;;;;;2081021;28;20568;-84
2021/05/18 07:01:59;;;;;;;14.70;12.80;;;12.40;90.00;;;;;;2069427;28;20034;-84
2021/05/18 07:03:00;;;;;;;14.75;12.48;;;12.40;90.00;;;;;;2072808;28;20105;-84
2021/05/18 07:04:05;;;;;;;15.52;12.90;;;12.40;90.00;;;;;;2071396;28;20441;-84
2021/05/18 07:05:28;;;;;;;14.95;12.00;;;12.40;90.00;;;;;;2075178;28;20022;-84
2021/05/18 07:07:33;;;;;;;16.25;12.73;;;12.50;89.90;;;;;;2068779;28;20026;-84
2021/05/18 07:09:34;;;;;;;14.38;11.88;;;12.60;89.80;;;;;;2073339;28;20029;-83
2021/05/18 07:10:35;;;;;;;15.27;11.48;;;12.60;89.70;;;;;;2076720;28;20080;-84
2021/05/18 07:11:35;;;;;;;14.50;12.00;;;12.70;89.70;;;;;;2074983;28;20048;-84
2021/05/18 07:12:38;;;;;;;13.68;11.32;;;12.70;89.60;;;;;;2076749;28;20077;-84
2021/05/18 07:13:38;;;;;;;14.02;11.45;;;12.80;89.50;;;;;;2067054;28;20026;-84
2021/05/18 07:14:39;;;;;;;14.30;11.25;;;12.90;89.50;;;;;;2074330;28;20435;-84
2021/05/18 07:15:40;;;;;;;13.82;11.18;;;12.90;89.30;;;;;;2074769;28;20404;-84
2021/05/18 07:16:41;;;;;;;14.50;11.70;;;13.00;89.20;;;;;;2083149;28;20075;-84
2021/05/18 07:17:42;;;;;;;14.35;11.40;;;13.00;89.10;;;;;;2083327;28;20597;-83
2021/05/18 07:18:42;;;;;;;14.40;11.05;;;13.00;89.00;;;;;;2058871;28;20026;-83
2021/05/18 07:19:45;;;;;;;13.18;11.05;;;13.00;89.00;;;;;;2067379;28;20034;-83
2021/05/18 07:20:45;;;;;;;13.93;10.95;;;13.00;89.00;;;;;;2074523;28;20028;-84
2021/05/18 07:21:46;;;;;;;13.30;10.98;;;13.00;88.90;;;;;;2078117;28;20032;-84
2021/05/18 07:22:56;;;;;;;13.88;11.02;;;13.00;88.80;;;;;;2074692;28;20116;-83
2021/05/18 07:23:57;;;;;;;13.02;10.45;;;13.00;88.90;;;;;;2074464;28;20121;-84
2021/05/18 07:24:58;;;;;;;14.40;11.75;;;13.00;88.90;;;;;;2072866;28;20026;-83
2021/05/18 07:25:58;;;;;;;15.73;11.85;;;12.90;88.90;;;;;;2057964;28;20031;-83
2021/05/18 07:27:02;;;;;;;14.30;11.90;;;12.90;88.90;;;;;;2065821;28;20109;-84
2021/05/18 07:28:07;;;;;;;13.50;11.32;;;12.80;88.90;;;;;;2072528;28;20084;-82
2021/05/18 07:29:08;;;;;;;13.32;10.95;;;12.70;89.60;;;;;;2074400;28;20030;-83
2021/05/18 07:30:10;;;;;;;14.20;11.27;;;12.70;89.20;;;;;;2071199;28;20072;-83
2021/05/18 07:31:11;;;;;;;12.63;10.23;;;12.70;89.30;;;;;;2073309;28;20018;-83
2021/05/18 07:32:11;;;;;;;11.75;10.07;;;12.60;89.40;;;;;;2065360;28;20931;-83
2021/05/18 07:33:12;;;;;;;13.10;10.15;;;12.60;89.60;;;;;;2073960;28;20124;-83
2021/05/18 07:34:13;;;;;;;12.70;9.30;;;12.50;89.60;;;;;;2082015;28;20040;-84